Time;durP1;ratioP1;P1;durP2;ratioP2;P2;SDS_P1;SDS_P2;PMS_P1;PMS_P2;Temp;Humidity;BMP_temperature;BMP_pressure;BME280_temperature;BME280_humidity;BME280_pressure;Samples;Min_cycle;Max_cycle;Signal;HPM_P1;HPM_P2
2022/03/16 00:02:05;;;;;;;27.67;16.73;;;3.50;99.90;;;;;;5109975;28;20193;-71
2022/03/16 00:04:32;;;;;;;26.90;15.03;;;3.50;99.90;;;;;;5110107;28;20208;-72
2022/03/16 00:06:59;;;;;;;30.20;15.70;;;3.40;99.90;;;;;;5110538;28;20219;-71
2022/03/16 00:09:26;;;;;;;26.93;15.23;;;3.30;99.90;;;;;;5099259;28;20197;-73
2022/03/16 00:11:53;;;;;;;25.20;15.17;;;3.20;99.90;;;;;;5110201;28;20201;-72
2022/03/16 00:14:21;;;;;;;24.07;14.07;;;3.40;99.90;;;;;;5110155;28;20201;-72
2022/03/16 00:16:49;;;;;;;28.80;15.50;;;3.50;99.90;;;;;;5107942;28;20198;-72
2022/03/16 00:19:16;;;;;;;27.43;15.00;;;3.50;99.90;;;;;;5113169;28;20582;-72
2022/03/16 00:21:44;;;;;;;26.50;15.63;;;3.50;99.90;;;;;;5113026;28;20271;-71
2022/03/16 00:24:11;;;;;;;28.40;16.10;;;3.40;99.90;;;;;;5107569;28;20197;-71
2022/03/16 00:26:38;;;;;;;27.93;15.37;;;3.20;99.90;;;;;;5114272;28;20193;-71
2022/03/16 00:29:05;;;;;;;27.67;14.83;;;3.20;99.90;;;;;;5108541;28;20208;-71
2022/03/16 00:31:34;;;;;;;26.00;14.83;;;3.10;99.90;;;;;;5113600;28;20204;-72
2022/03/16 00:34:04;;;;;;;25.50;14.87;;;3.10;99.90;;;;;;5113145;28;20650;-71
2022/03/16 00:36:31;;;;;;;24.87;13.67;;;2.90;99.90;;;;;;5112870;28;20193;-72
2022/03/16 00:38:58;;;;;;;27.70;15.33;;;2.90;99.90;;;;;;5103923;28;20222;-71
2022/03/16 00:41:25;;;;;;;26.83;14.93;;;3.00;99.90;;;;;;5113999;28;20587;-72
2022/03/16 00:43:53;;;;;;;30.13;16.60;;;3.10;99.90;;;;;;5094977;28;20209;-72
2022/03/16 00:46:20;;;;;;;29.30;16.17;;;3.10;99.90;;;;;;5110931;28;20193;-72
2022/03/16 00:48:47;;;;;;;27.90;16.33;;;3.10;99.90;;;;;;5112537;28;20659;-72
2022/03/16 00:51:16;;;;;;;30.83;16.47;;;3.20;99.90;;;;;;5111930;28;20369;-71
2022/03/16 00:53:45;;;;;;;27.47;14.93;;;3.00;99.90;;;;;;5097174;28;20204;-71
2022/03/16 00:56:13;;;;;;;27.20;15.07;;;2.80;99.90;;;;;;5113624;28;20208;-72
2022/03/16 00:58:40;;;;;;;26.37;14.63;;;2.80;99.90;;;;;;5111387;28;20795;-72
2022/03/16 01:01:08;;;;;;;26.20;15.10;;;2.80;99.90;;;;;;5113762;28;20731;-71
2022/03/16 01:03:40;;;;;;;26.93;15.07;;;2.90;99.90;;;;;;5095939;28;20212;-72
2022/03/16 01:06:12;;;;;;;25.60;14.10;;;2.80;99.90;;;;;;5108031;28;20201;-72
2022/03/16 01:08:41;;;;;;;28.03;14.83;;;2.50;99.90;;;;;;5096144;28;20537;-71
2022/03/16 01:11:08;;;;;;;26.23;15.43;;;2.50;99.90;;;;;;5109807;28;20248;-71
2022/03/16 01:13:35;;;;;;;28.50;15.23;;;2.50;99.90;;;;;;5095149;28;20213;-72
2022/03/16 01:16:03;;;;;;;21.40;12.20;;;2.40;99.90;;;;;;5106341;28;20207;-72
2022/03/16 01:18:30;;;;;;;24.80;13.40;;;2.40;99.90;;;;;;5096563;28;20285;-71
2022/03/16 01:20:57;;;;;;;24.90;13.80;;;2.40;99.90;;;;;;5105385;28;20224;-71
2022/03/16 01:23:24;;;;;;;20.70;12.03;;;2.20;99.90;;;;;;5100455;28;20221;-71
2022/03/16 01:25:53;;;;;;;22.40;13.83;;;2.30;99.90;;;;;;5111905;28;20197;-71
2022/03/16 01:28:20;;;;;;;23.83;13.83;;;2.20;99.90;;;;;;5113505;28;20247;-71
2022/03/16 01:30:47;;;;;;;25.67;14.30;;;2.10;99.90;;;;;;5109321;28;20213;-71
2022/03/16 01:33:14;;;;;;;36.53;13.67;;;1.70;99.90;;;;;;5113220;28;20204;-71
2022/03/16 01:35:42;;;;;;;23.93;13.07;;;1.80;99.90;;;;;;5113924;28;20643;-72
2022/03/16 01:38:09;;;;;;;33.20;14.07;;;1.80;99.90;;;;;;5111549;28;20197;-71
2022/03/16 01:40:36;;;;;;;29.00;13.93;;;1.50;99.90;;;;;;5099390;28;20675;-71
2022/03/16 01:43:04;;;;;;;35.67;14.97;;;1.50;99.90;;;;;;5111505;28;20205;-71
2022/03/16 01:45:32;;;;;;;38.60;14.47;;;1.50;99.90;;;;;;5113531;28;20632;-71
2022/03/16 01:47:59;;;;;;;29.87;15.67;;;1.70;99.90;;;;;;5103468;28;20212;-71
2022/03/16 01:50:26;;;;;;;33.30;13.67;;;1.70;99.90;;;;;;5108524;28;20204;-71
2022/03/16 01:52:54;;;;;;;34.00;13.97;;;1.70;99.90;;;;;;5105147;28;20201;-71
2022/03/16 01:55:21;;;;;;;30.07;14.00;;;1.70;99.90;;;;;;5108887;28;20212;-71
2022/03/16 01:57:49;;;;;;;63.80;15.50;;;1.70;99.90;;;;;;5105385;28;20209;-71
2022/03/16 02:00:18;;;;;;;61.67;14.17;;;1.70;99.90;;;;;;5096546;28;20217;-72
2022/03/16 02:02:46;;;;;;;57.33;15.47;;;1.50;99.90;;;;;;5101642;28;20600;-71
2022/03/16 02:05:13;;;;;;;43.27;13.73;;;1.50;99.90;;;;;;5102997;28;20643;-72
2022/03/16 02:07:43;;;;;;;32.40;14.63;;;1.60;99.90;;;;;;5106065;28;20210;-71
2022/03/16 02:10:11;;;;;;;26.30;13.17;;;1.80;99.90;;;;;;5101718;28;20204;-72
2022/03/16 02:12:46;;;;;;;47.27;13.97;;;1.80;99.90;;;;;;5100700;28;20193;-72
2022/03/16 02:15:14;;;;;;;50.07;14.83;;;1.90;99.90;;;;;;5097931;28;20712;-72
2022/03/16 02:17:42;;;;;;;39.17;14.73;;;1.80;99.90;;;;;;5102523;28;20830;-72
2022/03/16 02:20:11;;;;;;;37.90;14.17;;;1.80;99.90;;;;;;5112944;28;20217;-71
2022/03/16 02:22:48;;;;;;;29.00;13.47;;;1.60;99.90;;;;;;5106822;28;20206;-71
2022/03/16 02:25:16;;;;;;;29.80;13.47;;;1.50;99.90;;;;;;5101249;28;20197;-72
2022/03/16 02:27:43;;;;;;;32.47;14.10;;;1.40;99.90;;;;;;5104831;28;20631;-72
2022/03/16 02:30:12;;;;;;;32.47;13.80;;;1.30;99.90;;;;;;5111791;28;20567;-71
2022/03/16 02:32:39;;;;;;;26.03;12.70;;;1.10;99.90;;;;;;5105525;28;20254;-71
2022/03/16 02:35:07;;;;;;;27.23;13.80;;;1.00;99.90;;;;;;5112687;28;20197;-72
2022/03/16 02:37:38;;;;;;;25.33;13.27;;;1.00;99.90;;;;;;5106604;28;20201;-72
2022/03/16 02:40:09;;;;;;;25.30;15.10;;;1.20;99.90;;;;;;5098752;28;20266;-71
2022/03/16 02:42:37;;;;;;;24.83;14.40;;;1.10;99.90;;;;;;5102633;28;20251;-72
2022/03/16 02:45:05;;;;;;;23.53;13.43;;;1.10;99.90;;;;;;5107078;28;20436;-72
2022/03/16 02:47:33;;;;;;;26.47;14.93;;;1.30;99.90;;;;;;5108529;28;20201;-74
2022/03/16 02:50:02;;;;;;;27.07;15.60;;;1.60;99.90;;;;;;5110807;28;20312;-74
2022/03/16 02:52:29;;;;;;;30.60;16.60;;;1.70;99.90;;;;;;5110926;28;20193;-74
2022/03/16 02:54:56;;;;;;;28.07;16.23;;;1.80;99.90;;;;;;5098051;28;20204;-74
2022/03/16 02:57:25;;;;;;;32.80;15.20;;;1.60;99.90;;;;;;5095895;28;20206;-74
2022/03/16 02:59:52;;;;;;;30.57;15.93;;;1.60;99.90;;;;;;5111895;28;20713;-74
2022/03/16 03:02:19;;;;;;;28.70;15.90;;;1.60;99.90;;;;;;5106933;28;20710;-74
2022/03/16 03:04:46;;;;;;;28.33;15.83;;;1.70;99.90;;;;;;5112295;28;20699;-75
2022/03/16 03:07:14;;;;;;;32.00;16.13;;;1.90;99.90;;;;;;5110040;28;20197;-74
2022/03/16 03:09:41;;;;;;;30.97;17.27;;;1.70;99.90;;;;;;5101049;28;20197;-72
2022/03/16 03:12:09;;;;;;;28.50;16.93;;;1.50;99.90;;;;;;5092716;28;20218;-72
2022/03/16 03:14:37;;;;;;;29.90;16.77;;;1.60;99.90;;;;;;5103397;28;20615;-72
2022/03/16 03:17:05;;;;;;;28.70;16.17;;;1.50;99.90;;;;;;5105988;28;20197;-72
2022/03/16 03:19:33;;;;;;;28.63;15.80;;;1.60;99.90;;;;;;5110181;28;20546;-72
2022/03/16 03:22:00;;;;;;;37.10;16.60;;;1.70;99.90;;;;;;5110179;28;20200;-72
2022/03/16 03:24:27;;;;;;;30.33;16.03;;;1.70;99.90;;;;;;5106371;28;20193;-72
2022/03/16 03:26:54;;;;;;;34.10;17.57;;;1.50;99.90;;;;;;5100572;28;20457;-71
2022/03/16 03:29:22;;;;;;;35.83;17.07;;;1.50;99.90;;;;;;5106111;28;20200;-71
2022/03/16 03:31:51;;;;;;;36.13;16.03;;;1.40;99.90;;;;;;5107267;28;20206;-71
2022/03/16 03:34:18;;;;;;;34.57;15.67;;;1.40;99.90;;;;;;5104391;28;20197;-72
2022/03/16 03:36:45;;;;;;;34.10;15.17;;;1.40;99.90;;;;;;5106370;28;20204;-74
2022/03/16 03:39:12;;;;;;;28.30;14.87;;;1.40;99.90;;;;;;5106953;28;20279;-76
2022/03/16 03:41:39;;;;;;;32.20;14.03;;;1.40;99.90;;;;;;5107669;28;20213;-74
2022/03/16 03:44:07;;;;;;;28.27;14.50;;;1.50;99.90;;;;;;5098110;28;20201;-74
2022/03/16 03:46:34;;;;;;;25.73;14.80;;;1.60;99.90;;;;;;5110453;28;20205;-74
2022/03/16 03:49:03;;;;;;;27.33;15.57;;;1.50;99.90;;;;;;5105655;28;20197;-74
2022/03/16 03:51:30;;;;;;;34.90;18.10;;;1.40;99.90;;;;;;5110422;28;20204;-75
2022/03/16 03:53:57;;;;;;;34.50;19.43;;;1.40;99.90;;;;;;5110584;28;20546;-75
2022/03/16 03:56:25;;;;;;;34.17;20.13;;;1.50;99.90;;;;;;5110709;28;20208;-76
2022/03/16 03:58:53;;;;;;;37.23;20.93;;;1.40;99.90;;;;;;5096042;28;20292;-76
2022/03/16 04:01:20;;;;;;;37.53;20.70;;;1.40;99.90;;;;;;5111233;28;20224;-72
2022/03/16 04:03:47;;;;;;;37.97;20.90;;;1.50;99.90;;;;;;5092266;28;20197;-75
2022/03/16 04:06:16;;;;;;;45.40;21.37;;;1.60;99.90;;;;;;5111905;28;20196;-75
2022/03/16 04:08:43;;;;;;;41.47;20.93;;;1.70;99.90;;;;;;5108045;28;20208;-75
2022/03/16 04:11:11;;;;;;;37.70;19.97;;;1.70;99.90;;;;;;5109379;28;20201;-76
2022/03/16 04:13:39;;;;;;;38.07;20.23;;;1.80;99.90;;;;;;5111490;28;20208;-75
2022/03/16 04:16:06;;;;;;;36.67;18.90;;;1.80;99.90;;;;;;5106122;28;20590;-75
2022/03/16 04:18:33;;;;;;;55.17;21.23;;;1.80;99.90;;;;;;5107770;28;20199;-75
2022/03/16 04:21:01;;;;;;;69.50;20.77;;;1.80;99.90;;;;;;5111824;28;20248;-75
2022/03/16 04:23:29;;;;;;;55.50;22.40;;;1.80;99.90;;;;;;5104177;28;20201;-75
2022/03/16 04:25:56;;;;;;;41.47;21.40;;;1.90;99.90;;;;;;5091625;28;20232;-72
2022/03/16 04:28:24;;;;;;;63.77;24.37;;;1.90;99.90;;;;;;5091071;28;20862;-75
2022/03/16 04:30:51;;;;;;;53.43;21.13;;;1.80;99.90;;;;;;5097433;28;20549;-72
2022/03/16 04:33:18;;;;;;;69.67;19.67;;;1.80;99.90;;;;;;5109055;28;20411;-72
2022/03/16 04:35:45;;;;;;;69.37;19.97;;;1.80;99.90;;;;;;5096634;28;20647;-72
2022/03/16 04:38:12;;;;;;;55.83;18.97;;;1.80;99.90;;;;;;5104471;28;20223;-72
2022/03/16 04:40:41;;;;;;;39.00;18.03;;;1.90;99.90;;;;;;5097782;28;20209;-72
2022/03/16 04:43:08;;;;;;;57.40;17.97;;;2.00;99.90;;;;;;5104939;28;20227;-72
2022/03/16 04:45:38;;;;;;;47.03;17.80;;;2.10;99.90;;;;;;5111508;28;20199;-75
2022/03/16 04:48:08;;;;;;;60.77;18.97;;;2.00;99.90;;;;;;5109925;28;20502;-72
2022/03/16 04:50:35;;;;;;;64.57;18.33;;;1.90;99.90;;;;;;5109732;28;20427;-72
2022/03/16 04:53:04;;;;;;;71.67;19.90;;;2.00;99.90;;;;;;5101624;28;20258;-72
2022/03/16 04:55:32;;;;;;;39.57;20.43;;;2.20;99.90;;;;;;5089393;28;20285;-72
2022/03/16 04:58:01;;;;;;;51.37;20.73;;;2.30;99.90;;;;;;5096930;28;20679;-72
2022/03/16 05:00:28;;;;;;;49.40;20.20;;;2.40;99.90;;;;;;5110727;28;20221;-73
2022/03/16 05:02:55;;;;;;;45.47;18.77;;;2.40;99.90;;;;;;5113406;28;20205;-75
2022/03/16 05:05:22;;;;;;;48.27;18.37;;;2.30;99.90;;;;;;5115225;28;20194;-75
2022/03/16 05:07:49;;;;;;;50.87;17.87;;;2.10;99.90;;;;;;5109915;28;20560;-72
2022/03/16 05:10:17;;;;;;;52.13;17.63;;;2.10;99.90;;;;;;5094580;28;20194;-72
2022/03/16 05:12:45;;;;;;;51.97;18.70;;;2.00;99.90;;;;;;5094157;28;20210;-75
2022/03/16 05:15:17;;;;;;;40.97;16.63;;;2.00;99.90;;;;;;5094684;28;20204;-75
2022/03/16 05:17:45;;;;;;;36.20;16.53;;;1.90;99.90;;;;;;5111595;28;20203;-73
2022/03/16 05:20:14;;;;;;;32.50;16.33;;;1.90;99.90;;;;;;5112541;28;20204;-75
2022/03/16 05:22:44;;;;;;;46.10;17.10;;;1.90;99.90;;;;;;5108861;28;20201;-72
2022/03/16 05:25:13;;;;;;;43.73;16.40;;;1.90;99.90;;;;;;5092900;28;20197;-76
2022/03/16 05:27:40;;;;;;;62.60;18.47;;;1.90;99.90;;;;;;5097513;28;20204;-72
2022/03/16 05:30:09;;;;;;;40.47;17.47;;;1.90;99.90;;;;;;5113373;28;20204;-73
2022/03/16 05:32:41;;;;;;;45.40;17.13;;;2.00;99.90;;;;;;5114269;28;20197;-75
2022/03/16 05:35:09;;;;;;;36.77;17.00;;;2.00;99.90;;;;;;5114102;28;20574;-72
2022/03/16 05:37:37;;;;;;;42.57;17.40;;;2.00;99.90;;;;;;5112515;28;20201;-72
2022/03/16 05:40:05;;;;;;;39.87;17.90;;;2.00;99.90;;;;;;5114718;28;20201;-75
2022/03/16 05:42:32;;;;;;;47.70;17.27;;;2.00;99.90;;;;;;5113646;28;20229;-75
2022/03/16 05:44:59;;;;;;;35.90;16.90;;;2.10;99.90;;;;;;5114640;28;20651;-75
2022/03/16 05:47:27;;;;;;;49.80;17.13;;;2.10;99.90;;;;;;5113299;28;20200;-76
2022/03/16 05:49:56;;;;;;;73.80;19.40;;;2.10;99.90;;;;;;5114332;28;20563;-75
2022/03/16 05:52:26;;;;;;;41.63;18.20;;;2.10;99.90;;;;;;5112898;28;20705;-75
2022/03/16 05:54:55;;;;;;;31.67;17.23;;;2.10;99.90;;;;;;5114144;28;20197;-75
2022/03/16 05:57:23;;;;;;;39.47;17.83;;;2.00;99.90;;;;;;5113416;28;20292;-74
2022/03/16 05:59:50;;;;;;;50.13;18.07;;;2.00;99.90;;;;;;5113018;28;20201;-75
2022/03/16 06:02:18;;;;;;;39.00;18.13;;;2.00;99.90;;;;;;5095362;28;20244;-75
2022/03/16 06:04:45;;;;;;;49.60;17.20;;;2.00;99.90;;;;;;5093483;28;20206;-74
2022/03/16 06:07:14;;;;;;;60.17;19.53;;;1.90;99.90;;;;;;5092654;28;20241;-74
2022/03/16 06:09:41;;;;;;;39.53;19.17;;;2.00;99.90;;;;;;5093432;28;20598;-74
2022/03/16 06:12:10;;;;;;;57.40;19.63;;;2.10;99.90;;;;;;5106081;28;20204;-75
2022/03/16 06:14:37;;;;;;;44.13;19.50;;;2.00;99.90;;;;;;5113119;28;20178;-74
2022/03/16 06:17:05;;;;;;;54.77;18.80;;;2.00;99.90;;;;;;5112547;28;20593;-74
2022/03/16 06:19:32;;;;;;;56.33;19.73;;;2.10;99.90;;;;;;5112271;28;20563;-74
2022/03/16 06:22:00;;;;;;;42.97;17.60;;;2.10;99.90;;;;;;5111810;28;20217;-74
2022/03/16 06:24:28;;;;;;;50.53;19.07;;;2.10;99.90;;;;;;5091743;28;20205;-74
2022/03/16 06:26:56;;;;;;;46.80;18.07;;;2.10;99.90;;;;;;5091898;28;20194;-75
2022/03/16 06:29:23;;;;;;;37.10;18.77;;;2.20;99.90;;;;;;5093284;28;20288;-74
2022/03/16 06:31:51;;;;;;;38.00;17.60;;;2.20;99.90;;;;;;5096862;28;20631;-74
2022/03/16 06:34:18;;;;;;;39.10;18.07;;;2.30;99.90;;;;;;5113496;28;20200;-72
2022/03/16 06:36:45;;;;;;;37.67;17.90;;;2.40;99.90;;;;;;5110740;28;20276;-74
2022/03/16 06:39:13;;;;;;;36.57;18.90;;;2.30;99.90;;;;;;5111714;28;20201;-76
2022/03/16 06:41:42;;;;;;;34.90;18.60;;;2.30;99.90;;;;;;5112520;28;20228;-77
2022/03/16 06:44:09;;;;;;;36.10;19.00;;;2.30;99.90;;;;;;5113076;28;20699;-76
2022/03/16 06:46:37;;;;;;;33.27;18.40;;;2.40;99.90;;;;;;5112213;28;20617;-72
2022/03/16 06:49:04;;;;;;;38.13;18.73;;;2.40;99.90;;;;;;5112006;28;20244;-72
2022/03/16 06:51:32;;;;;;;36.37;18.10;;;2.30;99.90;;;;;;5111964;28;20292;-72
2022/03/16 06:53:59;;;;;;;37.67;17.80;;;2.40;99.90;;;;;;5112170;28;20205;-72
2022/03/16 06:56:26;;;;;;;47.47;18.50;;;2.50;99.90;;;;;;5112894;28;20205;-72
2022/03/16 06:58:54;;;;;;;85.73;19.27;;;2.60;99.90;;;;;;5112419;28;20564;-73
2022/03/16 07:01:22;;;;;;;72.47;19.33;;;2.60;99.90;;;;;;5111703;28;20315;-77
2022/03/16 07:03:49;;;;;;;50.43;18.00;;;2.80;99.90;;;;;;5112735;28;20204;-76
2022/03/16 07:06:16;;;;;;;60.93;20.50;;;2.90;99.90;;;;;;5104969;28;20547;-73
2022/03/16 07:08:43;;;;;;;45.63;18.17;;;3.00;99.90;;;;;;5104524;28;20287;-76
2022/03/16 07:11:10;;;;;;;36.47;18.53;;;2.90;99.90;;;;;;5112403;28;20201;-76
2022/03/16 07:13:38;;;;;;;43.63;18.67;;;3.00;99.90;;;;;;5099501;28;20288;-76
2022/03/16 07:16:07;;;;;;;39.00;16.40;;;3.00;99.90;;;;;;5112289;28;20208;-76
2022/03/16 07:18:34;;;;;;;45.27;17.03;;;3.00;99.90;;;;;;5110905;28;20200;-76
2022/03/16 07:21:01;;;;;;;32.67;18.60;;;3.00;99.90;;;;;;5105520;28;20198;-72
2022/03/16 07:23:29;;;;;;;35.70;19.77;;;3.10;99.90;;;;;;5092588;28;20258;-72
2022/03/16 07:25:56;;;;;;;34.10;19.00;;;3.00;99.90;;;;;;5090431;28;20208;-72
2022/03/16 07:28:23;;;;;;;33.17;18.93;;;3.00;99.90;;;;;;5091949;28;20194;-73
2022/03/16 07:30:50;;;;;;;31.23;18.57;;;3.10;99.90;;;;;;5089584;28;20202;-76
2022/03/16 07:33:19;;;;;;;35.87;20.93;;;3.20;99.90;;;;;;5112236;28;20296;-76
2022/03/16 07:35:48;;;;;;;76.50;20.73;;;3.20;99.90;;;;;;5111647;28;20205;-76
2022/03/16 07:38:15;;;;;;;35.60;19.43;;;3.40;99.90;;;;;;5101061;28;20223;-76
2022/03/16 07:40:42;;;;;;;29.80;19.37;;;3.50;99.90;;;;;;5091863;28;20284;-74
2022/03/16 07:43:10;;;;;;;29.23;18.97;;;3.80;99.90;;;;;;5104583;28;20289;-72
2022/03/16 07:45:37;;;;;;;36.20;19.07;;;3.80;99.90;;;;;;5112623;28;20292;-76
2022/03/16 07:48:05;;;;;;;30.53;18.63;;;3.90;99.90;;;;;;5100933;28;20201;-76
2022/03/16 07:50:34;;;;;;;33.27;20.80;;;4.00;99.90;;;;;;5090492;28;20280;-76
2022/03/16 07:53:02;;;;;;;34.17;22.17;;;4.30;99.90;;;;;;5090624;28;20621;-74
2022/03/16 07:55:29;;;;;;;31.23;20.43;;;4.50;99.90;;;;;;5091225;28;20284;-72
2022/03/16 07:57:56;;;;;;;29.33;19.57;;;4.70;99.90;;;;;;5090507;28;20201;-72
2022/03/16 08:00:24;;;;;;;29.10;19.53;;;4.60;99.90;;;;;;5091642;28;20652;-74
2022/03/16 08:02:54;;;;;;;36.63;19.67;;;4.60;99.90;;;;;;5091214;28;20229;-74
2022/03/16 08:05:22;;;;;;;44.40;20.43;;;4.60;99.90;;;;;;5091939;28;20576;-72
2022/03/16 08:07:51;;;;;;;39.67;20.70;;;4.40;99.90;;;;;;5089967;28;20198;-72
2022/03/16 08:10:18;;;;;;;45.80;21.20;;;4.50;99.90;;;;;;5092036;28;20254;-72
2022/03/16 08:12:45;;;;;;;32.43;20.47;;;4.60;99.90;;;;;;5091641;28;20213;-76
2022/03/16 08:15:13;;;;;;;39.43;21.30;;;4.50;99.90;;;;;;5091111;28;20539;-76
2022/03/16 08:17:40;;;;;;;48.20;22.00;;;4.70;99.90;;;;;;5090659;28;20691;-76
2022/03/16 08:20:08;;;;;;;35.83;19.73;;;4.90;99.90;;;;;;5088972;28;20201;-76
2022/03/16 08:22:37;;;;;;;32.57;19.87;;;5.10;99.90;;;;;;5089585;28;20230;-76
2022/03/16 08:25:08;;;;;;;29.47;20.07;;;5.50;99.90;;;;;;5089785;28;20213;-76
2022/03/16 08:27:36;;;;;;;36.20;21.43;;;5.50;99.90;;;;;;5090153;28;20205;-76
2022/03/16 08:30:04;;;;;;;38.23;20.80;;;5.20;99.90;;;;;;5091692;28;20237;-72
2022/03/16 08:32:31;;;;;;;27.23;19.70;;;5.20;99.90;;;;;;5091410;28;20292;-74
2022/03/16 08:34:59;;;;;;;40.77;21.17;;;5.30;99.90;;;;;;5090620;28;20224;-72
2022/03/16 08:37:26;;;;;;;34.23;22.60;;;5.40;99.90;;;;;;5096436;28;20211;-74
2022/03/16 08:39:53;;;;;;;35.70;22.83;;;5.50;99.90;;;;;;5115647;28;20655;-74
2022/03/16 08:42:22;;;;;;;37.70;22.93;;;5.50;99.90;;;;;;5115007;28;20213;-74
2022/03/16 08:44:49;;;;;;;38.47;23.73;;;5.40;99.90;;;;;;5116237;28;20614;-72
2022/03/16 08:47:19;;;;;;;35.83;24.13;;;5.60;99.90;;;;;;5114946;28;20705;-72
2022/03/16 08:49:47;;;;;;;39.73;27.17;;;5.80;99.90;;;;;;5115055;28;20265;-74
2022/03/16 08:52:15;;;;;;;40.57;27.70;;;6.40;99.90;;;;;;5112975;28;20214;-74
2022/03/16 08:54:42;;;;;;;40.30;29.43;;;6.50;99.90;;;;;;5114114;28;20197;-72
2022/03/16 08:57:10;;;;;;;37.37;25.83;;;6.90;99.90;;;;;;5114346;28;20299;-76
2022/03/16 08:59:39;;;;;;;38.53;26.37;;;7.00;99.90;;;;;;5097131;28;20281;-76
2022/03/16 09:02:07;;;;;;;42.53;27.83;;;7.10;99.90;;;;;;5114125;28;20311;-72
2022/03/16 09:04:34;;;;;;;38.50;25.50;;;7.30;99.90;;;;;;5115268;28;20201;-74
2022/03/16 09:07:02;;;;;;;38.77;26.13;;;7.40;99.90;;;;;;5115286;28;20204;-76
2022/03/16 09:09:29;;;;;;;34.30;24.13;;;7.50;99.90;;;;;;5097647;28;20213;-76
2022/03/16 09:11:56;;;;;;;34.83;23.57;;;7.50;99.90;;;;;;5093572;28;20213;-76
2022/03/16 09:14:23;;;;;;;37.90;22.80;;;7.70;99.90;;;;;;5093604;28;20198;-74
2022/03/16 09:16:52;;;;;;;33.23;22.20;;;7.80;99.90;;;;;;5093429;28;20210;-72
2022/03/16 09:19:21;;;;;;;33.80;23.17;;;8.00;99.90;;;;;;5094050;28;20230;-74
2022/03/16 09:21:48;;;;;;;32.57;22.37;;;8.10;99.90;;;;;;5092651;28;20221;-74
2022/03/16 09:24:16;;;;;;;34.57;22.77;;;8.30;99.90;;;;;;5094182;28;20201;-74
2022/03/16 09:26:43;;;;;;;33.67;24.17;;;8.40;99.90;;;;;;5093538;28;20203;-75
2022/03/16 09:29:10;;;;;;;36.80;23.00;;;8.40;99.90;;;;;;5094117;28;20206;-74
2022/03/16 09:31:38;;;;;;;35.97;22.47;;;8.50;99.90;;;;;;5095865;28;20205;-76
2022/03/16 09:34:08;;;;;;;33.83;23.40;;;8.30;99.90;;;;;;5114782;28;20212;-75
2022/03/16 09:36:36;;;;;;;36.00;23.13;;;8.50;99.90;;;;;;5112559;28;20643;-75
2022/03/16 09:39:03;;;;;;;34.07;22.67;;;8.50;99.90;;;;;;5114105;28;20291;-72
2022/03/16 09:41:30;;;;;;;36.57;23.77;;;8.70;99.90;;;;;;5113707;28;20197;-72
2022/03/16 09:43:58;;;;;;;35.00;22.47;;;8.80;99.90;;;;;;5114118;28;20220;-72
2022/03/16 09:46:29;;;;;;;32.80;23.30;;;8.60;99.90;;;;;;5113843;28;20200;-72
2022/03/16 09:48:57;;;;;;;35.70;23.97;;;8.80;99.90;;;;;;5112161;28;20637;-72
2022/03/16 09:51:26;;;;;;;34.97;23.53;;;8.90;99.90;;;;;;5114334;28;20215;-72
2022/03/16 09:53:54;;;;;;;31.83;22.30;;;9.10;99.90;;;;;;5113858;28;20646;-74
2022/03/16 09:56:21;;;;;;;35.90;23.50;;;8.90;99.90;;;;;;5113862;28;20204;-75
2022/03/16 09:58:49;;;;;;;34.73;24.50;;;8.90;99.90;;;;;;5113058;28;20201;-72
2022/03/16 10:01:18;;;;;;;35.63;24.37;;;8.90;99.90;;;;;;5114087;28;20732;-72
2022/03/16 10:03:49;;;;;;;34.00;24.10;;;9.10;99.90;;;;;;5113987;28;20630;-72
2022/03/16 10:06:18;;;;;;;34.00;22.43;;;9.30;99.90;;;;;;5112525;28;20250;-72
2022/03/16 10:13:13;;;;;;;31.90;21.17;;;9.40;62.20;;;;;;5113361;28;20244;-75
2022/03/16 10:14:19;;;;;;;31.57;21.63;;;9.50;1.00;;;;;;5113717;28;20246;-75
2022/03/16 10:19:49;;;;;;;32.07;21.60;;;9.70;1.00;;;;;;5112240;28;20675;-72
2022/03/16 10:22:25;;;;;;;33.93;22.53;;;10.00;1.00;;;;;;5111098;28;20640;-72
2022/03/16 10:24:59;;;;;;;32.03;21.60;;;10.10;1.00;;;;;;5114072;28;20258;-75
2022/03/16 10:27:25;;;;;;;33.10;21.60;;;10.30;1.00;;;;;;5113794;28;20205;-75
2022/03/16 10:29:52;;;;;;;32.10;20.73;;;10.40;1.00;;;;;;5114003;28;20300;-75
2022/03/16 10:32:22;;;;;;;30.50;20.57;;;10.50;99.90;;;;;;5113703;28;20201;-75
2022/03/16 10:34:51;;;;;;;32.77;22.00;;;10.40;99.90;;;;;;5114702;28;20655;-75
2022/03/16 10:37:21;;;;;;;30.60;20.50;;;10.50;1.00;;;;;;5113601;28;20644;-75
2022/03/16 10:39:50;;;;;;;31.10;19.93;;;10.70;99.90;;;;;;5114259;28;20542;-75
2022/03/16 10:48:02;;;;;;;29.50;20.13;;;11.20;99.90;;;;;;5092388;28;20259;-75
2022/03/16 10:50:29;;;;;;;29.27;18.73;;;11.00;1.00;;;;;;5093694;28;20182;-75
2022/03/16 10:52:57;;;;;;;32.27;20.67;;;10.80;1.00;;;;;;5093331;28;20579;-75
2022/03/16 10:55:24;;;;;;;29.97;20.30;;;10.60;3.30;;;;;;5093398;28;20212;-75
2022/03/16 10:57:52;;;;;;;28.70;17.70;;;10.80;99.90;;;;;;5092683;28;20229;-75
2022/03/16 11:00:21;;;;;;;29.73;19.00;;;10.90;1.90;;;;;;5092980;28;20811;-75
2022/03/16 11:02:50;;;;;;;33.57;20.20;;;11.10;1.00;;;;;;5096525;28;20679;-75
2022/03/16 11:05:18;;;;;;;29.97;18.20;;;11.30;1.00;;;;;;5100103;28;20293;-75
2022/03/16 11:07:48;;;;;;;30.67;17.80;;;11.40;99.90;;;;;;5104849;28;20212;-75
2022/03/16 11:10:16;;;;;;;29.00;17.87;;;11.50;1.00;;;;;;5099800;28;20539;-75
2022/03/16 11:15:30;;;;;;;29.13;17.50;;;11.80;1.00;;;;;;5111802;28;20239;-74
2022/03/16 11:17:57;;;;;;;29.70;17.77;;;11.80;1.00;;;;;;5112644;28;20619;-75
2022/03/16 11:20:25;;;;;;;28.47;17.30;;;11.80;1.00;;;;;;5112355;28;20197;-75
2022/03/16 11:26:06;;;;;;;25.37;14.90;;;12.40;99.90;;;;;;5092134;28;20284;-75
2022/03/16 11:28:50;;;;;;;25.00;15.27;;;12.30;1.00;;;;;;5091836;28;20205;-75
2022/03/16 11:31:24;;;;;;;23.20;14.17;;;12.10;1.00;;;;;;5092633;28;20647;-75
2022/03/16 11:33:51;;;;;;;23.97;13.47;;;12.10;10.70;;;;;;5078662;28;20261;-75
2022/03/16 11:36:34;;;;;;;22.80;13.60;;;12.40;1.00;;;;;;5113208;28;20201;-75
2022/03/16 11:39:03;;;;;;;22.27;13.47;;;12.30;99.90;;;;;;5111666;28;20655;-75
2022/03/16 11:41:34;;;;;;;23.83;13.53;;;12.60;46.80;;;;;;5111877;28;20309;-75
2022/03/16 11:44:21;;;;;;;24.03;13.87;;;12.50;99.90;;;;;;5094452;28;20225;-75
2022/03/16 11:46:50;;;;;;;23.73;13.00;;;12.60;1.00;;;;;;5110738;28;20208;-75
2022/03/16 11:49:28;;;;;;;22.23;12.70;;;12.80;99.90;;;;;;5113066;28;20667;-74
2022/03/16 11:51:59;;;;;;;21.27;12.27;;;12.80;99.90;;;;;;5111728;28;20244;-74
2022/03/16 11:54:41;;;;;;;20.53;12.63;;;12.70;1.00;;;;;;5112602;28;20548;-75
2022/03/16 11:57:09;;;;;;;21.80;12.37;;;12.60;1.00;;;;;;5111528;28;20655;-74
2022/03/16 11:59:40;;;;;;;22.00;12.10;;;12.70;1.00;;;;;;5112058;28;20653;-74
2022/03/16 12:02:17;;;;;;;19.87;11.43;;;12.70;99.90;;;;;;5111198;28;20209;-74
2022/03/16 12:04:46;;;;;;;20.37;11.83;;;12.80;8.00;;;;;;5111869;28;20192;-74
2022/03/16 12:07:17;;;;;;;22.43;12.90;;;13.00;1.00;;;;;;5106136;28;20249;-75
2022/03/16 12:09:45;;;;;;;20.77;11.77;;;13.40;1.00;;;;;;5110477;28;20387;-74
2022/03/16 12:15:05;;;;;;;20.83;11.87;;;12.80;1.00;;;;;;5111730;28;20195;-74
2022/03/16 12:17:33;;;;;;;22.17;12.87;;;12.80;1.00;;;;;;5096858;28;20204;-74
2022/03/16 12:20:09;;;;;;;18.70;10.20;;;12.80;1.00;;;;;;5112555;28;20201;-74
2022/03/16 12:22:38;;;;;;;20.43;11.57;;;12.70;1.00;;;;;;5102123;28;20678;-74
2022/03/16 12:25:29;;;;;;;18.97;10.97;;;12.70;1.00;;;;;;5111581;28;20193;-74
2022/03/16 12:30:44;;;;;;;18.60;10.30;;;13.30;1.00;;;;;;5109183;28;20204;-74
2022/03/16 12:33:19;;;;;;;19.57;10.70;;;12.90;99.90;;;;;;5098893;28;20189;-74
2022/03/16 12:35:47;;;;;;;20.43;11.70;;;13.10;99.90;;;;;;5097697;28;20205;-74
2022/03/16 12:38:14;;;;;;;17.60;10.83;;;13.60;99.90;;;;;;5111230;28;20655;-74
2022/03/16 12:42:31;;;;;;;21.60;10.87;;;13.30;48.70;;;;;;5099131;28;20205;-74
2022/03/16 12:43:27;;;;;;;20.47;11.63;;;12.90;1.00;;;;;;5106603;28;20266;-74
2022/03/16 12:46:01;;;;;;;20.17;10.97;;;13.10;1.00;;;;;;5111059;28;20212;-74
2022/03/16 12:48:34;;;;;;;20.27;11.53;;;13.30;1.00;;;;;;5101542;28;20200;-74
2022/03/16 12:51:01;;;;;;;20.20;11.60;;;13.60;99.90;;;;;;5110829;28;20340;-75
2022/03/16 12:53:39;;;;;;;21.47;11.70;;;13.50;99.90;;;;;;5099230;28;20214;-73
2022/03/16 12:56:10;;;;;;;19.33;10.70;;;13.10;1.00;;;;;;5110517;28;20209;-74
2022/03/16 12:58:37;;;;;;;21.30;12.27;;;13.00;1.00;;;;;;5102188;28;20265;-75
2022/03/16 13:01:04;;;;;;;22.87;11.53;;;13.10;1.00;;;;;;5112351;28;20606;-74
2022/03/16 13:03:32;;;;;;;22.20;12.37;;;13.00;1.00;;;;;;5111111;28;20221;-74
2022/03/16 13:05:59;;;;;;;23.50;12.30;;;13.10;1.00;;;;;;5110696;28;20200;-73